FTTY

Faya Largeau Airport

Chad
METAR FTTY 181400Z 04006KT CAVOK 28/M08 Q1015
Observed Flight Rules
Jan-18 @ 14:00 UTC (36 minutes ago) Visual Flight Rules
Wind Visibility Clouds
40° at 6 knots 10,000+ meters
  • Clear skies
Temperatures Readings
Current 28°C / 82°F
Dewpoint -8°C / 18°F
Humidity 9%
Altimeter 29.97" Hg
Pressure 1014.92 hPa
Elevation 234
METAR FTTY 181400Z 04006KT CAVOK 28/M08 Q1015
Observed Flight Rules
Jan-18 @ 14:00 UTC
(36 minutes ago)
VFR
Wind Visibility
40° at 6 knots 10,000+ meters
Clouds
  • Clear skies
Temperature Dewpoint
28°C / 82°F -8°C / 18°F
Humidity Altimeter Pressure
9% 29.97" Hg 1014.92 hPa